Time;durP1;ratioP1;P1;durP2;ratioP2;P2;SDS_P1;SDS_P2;PMS_P1;PMS_P2;Temp;Humidity;BMP_temperature;BMP_pressure;BME280_temperature;BME280_humidity;BME280_pressure;Samples;Min_cycle;Max_cycle;Signal;HPM_P1;HPM_P2
2021/05/21 00:02:12;;;;;;;8.23;5.17;;;;;;;-144.99;73.02;52368.59;5105439;28;20366;-61
2021/05/21 00:04:42;;;;;;;8.37;4.77;;;;;;;-144.99;73.24;52391.03;5104150;28;20206;-62
2021/05/21 00:07:08;;;;;;;8.10;5.20;;;;;;;-144.99;73.38;52346.19;5102523;28;20734;-62
2021/05/21 00:09:34;;;;;;;6.67;4.47;;;;;;;-144.99;73.70;52354.34;5106627;28;20214;-62
2021/05/21 00:12:04;;;;;;;8.67;6.10;;;;;;;-144.99;73.97;52393.06;5108783;28;20200;-62
2021/05/21 00:14:32;;;;;;;7.47;5.80;;;;;;;-144.99;74.25;52370.63;5106425;28;20243;-62
2021/05/21 00:17:01;;;;;;;6.13;4.67;;;;;;;-144.99;74.53;52391.03;5103617;28;20630;-62
2021/05/21 00:19:28;;;;;;;9.13;6.93;;;;;;;-144.99;74.51;52362.50;5105667;28;20204;-66
2021/05/21 00:21:54;;;;;;;9.27;6.03;;;;;;;-144.99;74.80;52309.50;5105187;28;20211;-66
2021/05/21 00:24:23;;;;;;;9.30;6.93;;;;;;;-144.99;75.08;52358.41;5111936;28;20211;-66
2021/05/21 00:26:52;;;;;;;12.70;5.90;;;;;;;-144.99;75.42;52370.63;5109094;28;20227;-65
2021/05/21 00:29:24;;;;;;;8.80;6.53;;;;;;;-144.99;75.42;52362.50;5106572;28;20207;-65
2021/05/21 00:31:52;;;;;;;8.33;5.63;;;;;;;-144.99;75.67;52329.88;5101825;28;20242;-66
2021/05/21 00:34:21;;;;;;;9.07;6.30;;;;;;;-144.99;76.04;52388.97;5103820;28;20219;-65
2021/05/21 00:36:51;;;;;;;8.43;5.57;;;;;;;-144.99;76.13;52305.41;5106938;28;20593;-66
2021/05/21 00:39:23;;;;;;;8.40;5.97;;;;;;;-144.99;76.34;52382.88;5112023;28;20252;-66
2021/05/21 00:41:52;;;;;;;10.07;6.93;;;;;;;-144.99;76.59;52378.78;5097610;28;20674;-66
2021/05/21 00:44:18;;;;;;;9.23;6.17;;;;;;;-144.99;76.91;52309.50;5107112;28;20226;-65
2021/05/21 00:46:44;;;;;;;8.67;5.73;;;;;;;-144.99;77.11;52362.50;5103484;28;20592;-66
2021/05/21 00:49:17;;;;;;;8.77;6.07;;;;;;;-144.99;77.23;52350.25;5111666;28;20203;-64
2021/05/21 00:51:47;;;;;;;10.50;6.83;;;;;;;-144.99;77.30;52317.66;5111280;28;20216;-65
2021/05/21 00:54:16;;;;;;;8.77;6.53;;;;;;;-144.99;77.43;52380.84;5107370;28;20749;-64
2021/05/21 00:56:43;;;;;;;8.17;5.60;;;;;;;-144.99;77.40;52352.28;5102910;28;20246;-63
2021/05/21 00:59:09;;;;;;;9.90;7.47;;;;;;;-144.99;77.59;52399.19;5110742;28;20200;-64
2021/05/21 01:01:41;;;;;;;10.93;7.67;;;;;;;-144.99;77.69;52350.25;5098032;28;20743;-65
2021/05/21 01:04:07;;;;;;;12.03;8.40;;;;;;;-144.99;77.82;52346.19;5107179;28;20625;-64
2021/05/21 01:06:33;;;;;;;9.70;7.53;;;;;;;-144.99;77.78;52370.63;5108427;28;20245;-64
2021/05/21 01:09:09;;;;;;;10.50;7.37;;;;;;;-144.99;77.85;52346.19;5095907;28;20219;-63
2021/05/21 01:11:38;;;;;;;8.30;5.77;;;;;;;-144.99;78.05;52388.97;5098247;28;20216;-63
2021/05/21 01:14:10;;;;;;;7.80;6.97;;;;;;;-144.99;78.08;52386.94;5097021;28;20235;-63
2021/05/21 01:16:39;;;;;;;10.97;6.43;;;;;;;-144.99;78.22;52386.94;5096298;28;20300;-62
2021/05/21 01:19:06;;;;;;;14.27;8.90;;;;;;;-144.99;78.33;52358.41;5111775;28;20215;-62
2021/05/21 01:21:37;;;;;;;9.50;6.80;;;;;;;-144.99;78.49;52370.63;5111656;28;20223;-62
2021/05/21 01:24:04;;;;;;;11.00;7.30;;;;;;;-144.99;78.50;52346.19;5111237;28;20215;-62
2021/05/21 01:26:30;;;;;;;7.67;5.67;;;;;;;-144.99;78.95;52366.56;5091607;27;20257;-61
2021/05/21 01:28:56;;;;;;;10.70;5.77;;;;;;;-144.99;78.98;52354.34;5090495;28;20705;-61
2021/05/21 01:31:23;;;;;;;11.57;6.30;;;;;;;-144.99;78.97;52336.00;5090564;28;20212;-61
2021/05/21 01:33:50;;;;;;;8.83;6.60;;;;;;;-144.99;79.27;52384.91;5096612;28;20265;-62
2021/05/21 01:36:16;;;;;;;8.20;6.17;;;;;;;-144.99;79.41;52360.44;5107948;28;20207;-62
2021/05/21 01:38:56;;;;;;;13.33;7.40;;;;;;;-144.99;79.47;52386.94;5090536;28;20295;-61
2021/05/21 01:41:25;;;;;;;8.87;5.80;;;;;;;-144.99;79.58;52384.91;5091217;28;20219;-60
2021/05/21 01:43:56;;;;;;;10.23;6.67;;;;;;;-144.99;79.75;52340.06;5093600;28;20204;-60
2021/05/21 01:46:24;;;;;;;8.17;6.60;;;;;;;-144.99;79.90;52366.56;5090548;27;20212;-61
2021/05/21 01:48:50;;;;;;;8.83;6.40;;;;;;;-144.99;79.88;52362.50;5090994;28;20531;-61
2021/05/21 01:51:19;;;;;;;12.00;7.13;;;;;;;-144.99;80.06;52340.06;5104635;28;20200;-60
2021/05/21 01:53:45;;;;;;;10.57;7.70;;;;;;;-144.99;80.29;52329.88;5109279;28;20207;-60
2021/05/21 01:56:15;;;;;;;10.77;6.67;;;;;;;-144.99;80.43;52362.50;5110770;28;20214;-60
2021/05/21 01:58:44;;;;;;;9.97;7.10;;;;;;;-144.99;80.83;52378.78;5107337;28;20215;-61
2021/05/21 02:01:13;;;;;;;11.30;6.63;;;;;;;-144.99;80.86;52384.91;5106111;28;20743;-61
2021/05/21 02:03:41;;;;;;;7.47;5.93;;;;;;;-144.99;81.07;52315.59;5104747;28;20211;-61
2021/05/21 02:06:07;;;;;;;9.00;5.73;;;;;;;-144.99;81.01;52362.50;5103332;28;20204;-63
2021/05/21 02:08:36;;;;;;;10.80;8.20;;;;;;;-144.99;81.15;52362.50;5102468;28;20204;-64
2021/05/21 02:11:05;;;;;;;8.43;6.87;;;;;;;-144.99;81.27;52342.09;5110730;28;20203;-63
2021/05/21 02:13:32;;;;;;;8.63;6.10;;;;;;;-144.99;81.47;52354.34;5103098;28;20657;-65
2021/05/21 02:16:04;;;;;;;8.67;6.67;;;;;;;-144.99;81.73;52384.91;5110297;28;20202;-65
2021/05/21 02:18:36;;;;;;;8.67;6.60;;;;;;;-144.99;81.57;52362.50;5096714;28;20220;-63
2021/05/21 02:21:06;;;;;;;11.37;7.13;;;;;;;-144.99;81.46;52350.25;5104278;28;20203;-64
2021/05/21 02:23:38;;;;;;;10.27;7.57;;;;;;;-144.99;81.42;52391.03;5109736;28;20207;-65
2021/05/21 02:26:10;;;;;;;9.53;7.27;;;;;;;-144.99;81.46;52358.41;5102694;28;20204;-64
2021/05/21 02:28:37;;;;;;;10.73;6.63;;;;;;;-144.99;81.58;52380.84;5107858;28;20203;-64
2021/05/21 02:31:03;;;;;;;7.17;5.53;;;;;;;-144.99;81.54;52399.19;5108297;28;20210;-64
2021/05/21 02:33:38;;;;;;;12.20;7.47;;;;;;;-144.99;81.63;52342.09;5099559;28;20208;-65
2021/05/21 02:36:05;;;;;;;9.57;6.60;;;;;;;-144.99;81.88;52366.56;5104888;28;20660;-65
2021/05/21 02:38:31;;;;;;;9.83;7.10;;;;;;;-144.99;81.68;52342.09;5107043;28;20203;-63
2021/05/21 02:40:57;;;;;;;13.97;7.70;;;;;;;-144.99;81.90;52340.06;5103834;28;20606;-64
2021/05/21 02:43:26;;;;;;;13.40;7.63;;;;;;;-144.99;81.85;52366.56;5105888;28;20207;-64
2021/05/21 02:45:55;;;;;;;11.53;7.23;;;;;;;-144.99;81.86;52358.41;5109138;28;20198;-64
2021/05/21 02:48:24;;;;;;;11.87;5.77;;;;;;;-144.99;81.81;52336.00;5109332;28;20224;-64
2021/05/21 02:50:50;;;;;;;9.87;6.77;;;;;;;-144.99;81.63;52317.66;5104375;28;20207;-64
2021/05/21 02:53:19;;;;;;;12.77;9.07;;;;;;;-144.99;81.63;52348.22;5105967;28;20568;-65
2021/05/21 02:55:45;;;;;;;12.47;6.47;;;;;;;-144.99;81.58;52370.63;5109636;28;20223;-64
2021/05/21 02:58:11;;;;;;;8.60;6.80;;;;;;;-144.99;81.68;52329.88;5106428;28;20708;-65
2021/05/21 03:00:40;;;;;;;8.37;5.50;;;;;;;-144.99;81.59;52370.63;5103905;28;20210;-64
2021/05/21 03:03:09;;;;;;;8.77;6.53;;;;;;;-144.99;81.47;52358.41;5109306;28;20226;-62
2021/05/21 03:05:35;;;;;;;9.40;6.77;;;;;;;-144.99;81.71;52378.78;5102956;28;20204;-62
2021/05/21 03:08:01;;;;;;;9.47;7.70;;;;;;;-144.99;81.67;52370.63;5103807;28;20216;-62
2021/05/21 03:10:30;;;;;;;8.77;6.87;;;;;;;-144.99;81.74;52372.69;5095882;28;20250;-63
2021/05/21 03:12:57;;;;;;;8.57;6.40;;;;;;;-144.99;81.66;52342.09;5108436;28;20207;-63
2021/05/21 03:15:25;;;;;;;8.27;6.10;;;;;;;-144.99;81.68;52338.03;5103448;28;20223;-63
2021/05/21 03:17:51;;;;;;;10.80;6.27;;;;;;;-144.99;81.56;52370.63;5105563;28;20807;-64
2021/05/21 03:20:21;;;;;;;9.83;5.03;;;;;;;-144.99;81.69;52386.94;5101554;28;20685;-62
2021/05/21 03:22:50;;;;;;;9.37;5.17;;;;;;;-144.99;81.56;52366.56;5109463;28;20218;-65
2021/05/21 03:25:19;;;;;;;11.47;6.23;;;;;;;-144.99;81.56;52362.50;5103108;28;20253;-63
2021/05/21 03:27:48;;;;;;;8.17;5.93;;;;;;;-144.99;81.67;52368.59;5111766;28;20233;-65
2021/05/21 03:30:19;;;;;;;10.03;6.17;;;;;;;-144.99;81.79;52354.34;5108011;28;20212;-64
2021/05/21 03:32:48;;;;;;;11.13;6.07;;;;;;;-144.99;81.48;52399.19;5105924;28;20254;-64
2021/05/21 03:35:14;;;;;;;8.90;6.77;;;;;;;-144.99;81.56;52354.34;5107787;28;20227;-61
2021/05/21 03:37:41;;;;;;;12.23;6.77;;;;;;;-144.99;81.19;52423.63;5102117;28;20231;-61
2021/05/21 03:40:07;;;;;;;8.50;4.87;;;;;;;-144.99;81.53;52305.41;5103948;28;20214;-68
2021/05/21 03:42:36;;;;;;;9.70;6.50;;;;;;;-144.99;81.19;52342.09;5108931;28;20219;-67
2021/05/21 03:45:04;;;;;;;13.93;7.97;;;;;;;-144.99;81.30;52380.84;5110159;28;20202;-68
2021/05/21 03:47:33;;;;;;;7.67;6.10;;;;;;;-144.99;81.37;52366.56;5109090;28;20227;-68
2021/05/21 03:50:03;;;;;;;6.87;5.33;;;;;;;-144.99;81.33;52366.56;5105860;28;20203;-62
2021/05/21 03:52:29;;;;;;;9.60;5.37;;;;;;;-144.99;81.32;52321.72;5107253;28;20207;-61
2021/05/21 03:55:04;;;;;;;9.27;5.87;;;;;;;-144.99;81.12;52333.94;5105279;28;20729;-62
2021/05/21 03:57:30;;;;;;;7.67;5.70;;;;;;;-144.99;80.96;52325.81;5104431;28;20226;-61
2021/05/21 04:00:00;;;;;;;6.03;4.23;;;;;;;-144.99;80.85;52321.72;5113547;28;20583;-68
2021/05/21 04:02:26;;;;;;;10.27;6.03;;;;;;;-144.99;80.59;52370.63;5109744;28;20666;-67
2021/05/21 04:04:52;;;;;;;9.57;5.90;;;;;;;-144.99;80.52;52366.56;5106645;28;20249;-68
2021/05/21 04:07:18;;;;;;;8.37;5.40;;;;;;;-144.99;80.55;52329.88;5110520;28;20223;-67
2021/05/21 04:09:47;;;;;;;8.40;5.60;;;;;;;-144.99;80.70;52366.56;5110375;28;20199;-67
2021/05/21 04:12:13;;;;;;;6.80;5.00;;;;;;;-144.99;80.76;52362.50;5105594;28;20207;-70
2021/05/21 04:14:42;;;;;;;7.57;5.13;;;;;;;-144.99;80.66;52325.81;5111969;28;20224;-68
2021/05/21 04:17:11;;;;;;;6.93;5.17;;;;;;;-144.99;80.60;52342.09;5106606;28;20224;-67
2021/05/21 04:19:37;;;;;;;10.53;6.63;;;;;;;-144.99;80.45;52370.63;5108855;28;20203;-68
2021/05/21 04:22:03;;;;;;;7.33;5.53;;;;;;;-144.99;80.48;52336.00;5106736;28;20222;-68
2021/05/21 04:24:32;;;;;;;11.53;4.70;;;;;;;-144.99;80.57;52342.09;5112682;28;20206;-67
2021/05/21 04:27:01;;;;;;;6.13;4.93;;;;;;;-144.99;80.24;52342.09;5110164;28;20219;-68
2021/05/21 04:29:33;;;;;;;8.00;4.50;;;;;;;-144.99;80.06;52329.88;5106788;28;20222;-64
2021/05/21 04:31:59;;;;;;;5.80;5.00;;;;;;;-144.99;80.00;52313.56;5105155;28;20375;-65
2021/05/21 04:34:26;;;;;;;7.97;4.97;;;;;;;-144.99;79.79;52317.66;5112109;28;20624;-62
2021/05/21 04:36:52;;;;;;;14.23;4.43;;;;;;;-144.99;79.97;52325.81;5112853;27;20223;-62
2021/05/21 04:39:23;;;;;;;6.90;4.80;;;;;;;-144.99;79.83;52360.44;5110309;28;20257;-62
2021/05/21 04:41:55;;;;;;;5.77;3.90;;;;;;;-144.99;79.53;52384.91;5098649;28;20206;-61
2021/05/21 04:44:21;;;;;;;4.93;3.50;;;;;;;-144.99;79.38;52358.41;5111140;28;20206;-61
2021/05/21 04:46:48;;;;;;;7.60;3.97;;;;;;;-144.99;78.91;52378.78;5114799;28;20215;-60
2021/05/21 04:52:01;;;;;;;6.63;3.60;;;;;;;-144.99;78.70;52350.25;5099243;28;20298;-60
2021/05/21 04:54:27;;;;;;;6.00;4.60;;;;;;;-144.99;78.42;52362.50;5111687;28;20223;-60
2021/05/21 04:56:54;;;;;;;5.00;3.63;;;;;;;-144.99;77.84;52321.72;5111614;28;20238;-60
2021/05/21 04:59:23;;;;;;;4.17;3.00;;;;;;;-144.99;77.79;52329.88;5104368;28;20252;-68
2021/05/21 05:01:53;;;;;;;5.13;3.67;;;;;;;-144.99;77.53;52317.66;5095729;28;20477;-67
2021/05/21 05:04:22;;;;;;;5.00;3.63;;;;;;;-144.99;76.85;52329.88;5106057;28;20581;-67
2021/05/21 05:06:51;;;;;;;4.90;3.40;;;;;;;-144.99;76.77;52338.03;5105189;28;20696;-68
2021/05/21 05:09:17;;;;;;;3.60;2.43;;;;;;;-144.99;76.33;52301.34;5111464;28;20226;-64
2021/05/21 05:11:44;;;;;;;5.37;3.23;;;;;;;-144.99;76.31;52338.03;5108425;28;20204;-65
2021/05/21 05:14:14;;;;;;;5.37;2.70;;;;;;;-144.99;75.87;52333.94;5105748;28;20231;-65
2021/05/21 05:16:41;;;;;;;4.87;2.70;;;;;;;-144.99;75.84;52350.25;5110935;28;20227;-64
2021/05/21 05:19:08;;;;;;;4.13;2.77;;;;;;;-144.99;75.33;52301.34;5103918;28;20203;-65
2021/05/21 05:21:38;;;;;;;3.43;2.03;;;;;;;-144.99;75.34;52342.09;5105438;28;20635;-67
2021/05/21 05:24:07;;;;;;;8.40;3.27;;;;;;;-144.99;75.61;52366.56;5105228;28;20212;-65
2021/05/21 05:26:33;;;;;;;3.93;2.80;;;;;;;-144.99;75.13;52333.94;5104371;28;20477;-66
2021/05/21 05:29:02;;;;;;;3.00;2.30;;;;;;;-144.99;75.35;52329.88;5111566;28;20199;-68
2021/05/21 05:31:35;;;;;;;2.87;2.20;;;;;;;-144.99;75.16;52333.94;5108377;28;20678;-65
2021/05/21 05:34:01;;;;;;;4.13;2.13;;;;;;;-144.99;75.21;52391.03;5104473;28;20203;-65
2021/05/21 05:36:31;;;;;;;6.30;2.20;;;;;;;-144.99;74.77;52327.84;5110639;28;20585;-65
2021/05/21 05:39:00;;;;;;;5.10;3.07;;;;;;;-144.99;74.29;52338.03;5110797;28;20302;-66
2021/05/21 05:41:26;;;;;;;4.47;2.47;;;;;;;-144.99;73.84;52366.56;5103041;28;20666;-65
2021/05/21 05:43:58;;;;;;;5.83;2.83;;;;;;;-144.99;73.82;52305.41;5111280;28;20357;-64
2021/05/21 05:46:24;;;;;;;1.97;1.60;;;;;;;-144.99;73.70;52336.00;5107848;28;20249;-66
2021/05/21 05:48:53;;;;;;;4.23;2.10;;;;;;;-144.99;73.34;52313.56;5109093;28;20204;-64
2021/05/21 05:51:25;;;;;;;3.70;1.57;;;;;;;-144.99;72.84;52317.66;5109977;28;20203;-64
2021/05/21 05:53:58;;;;;;;3.30;3.00;;;;;;;-144.99;72.90;52329.88;5105363;28;20199;-64
2021/05/21 05:56:24;;;;;;;4.60;2.37;;;;;;;-144.99;72.56;52329.88;5108580;28;20226;-64
2021/05/21 05:58:53;;;;;;;3.83;2.27;;;;;;;-144.99;72.40;52358.41;5110166;28;20200;-65
2021/05/21 06:01:19;;;;;;;4.73;2.33;;;;;;;-144.99;72.34;52333.94;5110578;28;20623;-67
2021/05/21 06:03:47;;;;;;;6.60;2.30;;;;;;;-144.99;72.00;52289.13;5106800;28;20203;-67
2021/05/21 06:06:13;;;;;;;3.50;2.10;;;;;;;-144.99;71.55;52325.81;5104687;28;20192;-67
2021/05/21 06:08:39;;;;;;;2.87;2.07;;;;;;;-144.99;71.36;52317.66;5102750;28;20200;-64
2021/05/21 06:11:09;;;;;;;3.43;1.93;;;;;;;-144.99;71.25;52342.09;5108451;28;20203;-64
2021/05/21 06:13:38;;;;;;;5.03;2.10;;;;;;;-144.99;71.11;52329.88;5108653;28;20658;-64
2021/05/21 06:16:07;;;;;;;4.30;1.83;;;;;;;-144.99;71.45;52321.72;5105962;28;20231;-64
2021/05/21 06:18:33;;;;;;;5.30;1.70;;;;;;;-144.99;71.17;52344.16;5103931;28;20581;-62
2021/05/21 06:21:02;;;;;;;11.77;4.33;;;;;;;-144.99;71.50;52276.88;5104828;28;20195;-63
2021/05/21 06:23:34;;;;;;;3.73;1.90;;;;;;;-144.99;70.78;52333.94;5110429;28;20211;-62
2021/05/21 06:26:13;;;;;;;4.80;2.37;;;;;;;-144.99;71.37;52299.31;5102972;28;20208;-64
2021/05/21 06:28:43;;;;;;;5.03;2.40;;;;;;;-144.99;71.79;52329.88;5108779;28;20211;-64
2021/05/21 06:31:10;;;;;;;3.90;2.37;;;;;;;-144.99;72.08;52327.84;5108386;28;20211;-64
2021/05/21 06:33:36;;;;;;;4.10;1.60;;;;;;;-144.99;71.79;52323.75;5101032;28;20311;-64
2021/05/21 06:36:02;;;;;;;4.07;1.90;;;;;;;-144.99;72.40;52309.50;5108276;28;20227;-65
2021/05/21 06:38:31;;;;;;;2.47;1.80;;;;;;;-144.99;72.00;52270.78;5099370;28;20261;-69
2021/05/21 06:41:00;;;;;;;2.63;1.77;;;;;;;-144.99;71.90;52309.50;5110628;28;20200;-71
2021/05/21 06:43:28;;;;;;;3.43;1.87;;;;;;;-144.99;72.37;52346.19;5109044;28;20207;-71
2021/05/21 06:45:58;;;;;;;5.40;1.50;;;;;;;-144.99;71.53;52342.09;5107604;28;20219;-69
2021/05/21 06:48:29;;;;;;;2.97;1.17;;;;;;;-144.99;71.24;52329.88;5109683;28;20235;-69
2021/05/21 06:50:57;;;;;;;2.53;1.80;;;;;;;-144.99;70.80;52338.03;5097505;28;20200;-69
2021/05/21 06:53:26;;;;;;;3.80;1.47;;;;;;;-144.99;70.17;52321.72;5106199;28;20379;-68
2021/05/21 06:55:59;;;;;;;3.43;2.27;;;;;;;-144.99;69.85;52340.06;5102801;28;20270;-69
2021/05/21 06:58:31;;;;;;;2.83;1.67;;;;;;;-144.99;69.26;52309.50;5109617;28;20232;-67
2021/05/21 07:01:00;;;;;;;5.07;1.97;;;;;;;-144.99;69.04;52283.00;5105750;28;20202;-68
2021/05/21 07:03:28;;;;;;;3.20;1.33;;;;;;;-144.99;68.44;52323.75;5105017;28;20382;-68
2021/05/21 07:06:00;;;;;;;5.73;1.47;;;;;;;-144.99;67.93;52309.50;5104059;28;20205;-69
2021/05/21 07:08:31;;;;;;;6.47;1.73;;;;;;;-144.99;67.84;52268.72;5096750;28;20283;-68
2021/05/21 07:10:58;;;;;;;4.53;1.87;;;;;;;-144.99;67.27;52329.88;5110104;28;20219;-68
2021/05/21 07:13:26;;;;;;;4.10;1.47;;;;;;;-144.99;67.46;52266.69;5102697;28;20215;-69
2021/05/21 07:15:53;;;;;;;6.63;2.17;;;;;;;-144.99;67.23;52268.72;5109897;28;20299;-68
2021/05/21 07:18:21;;;;;;;2.63;1.47;;;;;;;-144.99;67.00;52301.34;5099043;28;20232;-69
2021/05/21 07:20:47;;;;;;;2.27;1.40;;;;;;;-144.99;66.95;52313.56;5104109;28;20209;-68
2021/05/21 07:23:15;;;;;;;9.27;1.37;;;;;;;-144.99;66.73;52305.41;5110413;28;20568;-68
2021/05/21 07:25:44;;;;;;;4.23;2.03;;;;;;;-144.99;66.94;52313.56;5107650;28;20220;-71
2021/05/21 07:28:13;;;;;;;8.03;1.90;;;;;;;-144.99;66.95;52321.72;5108636;28;20762;-69
2021/05/21 07:30:39;;;;;;;3.13;1.40;;;;;;;-144.99;66.94;52313.56;5113397;28;20230;-70
2021/05/21 07:33:08;;;;;;;6.43;1.83;;;;;;;-144.99;66.24;52342.09;5110471;28;20682;-70
2021/05/21 07:35:37;;;;;;;5.20;1.73;;;;;;;-144.99;67.16;52289.13;5114112;28;20237;-69
2021/05/21 07:38:09;;;;;;;7.80;1.73;;;;;;;-144.99;67.45;52329.88;5108358;28;20216;-69
2021/05/21 07:40:35;;;;;;;3.93;1.50;;;;;;;-144.99;67.60;52321.72;5112343;28;20208;-69
2021/05/21 07:43:03;;;;;;;3.57;1.70;;;;;;;-144.99;67.70;52309.50;5113152;28;20283;-68
2021/05/21 07:45:32;;;;;;;3.93;1.27;;;;;;;-144.99;67.71;52329.88;5113888;28;20228;-68
2021/05/21 07:48:04;;;;;;;6.80;1.40;;;;;;;-144.99;67.27;52303.38;5113951;28;20228;-68
2021/05/21 07:50:38;;;;;;;3.17;1.60;;;;;;;-144.99;67.64;52329.88;5112945;28;20280;-69
2021/05/21 07:53:11;;;;;;;2.17;1.67;;;;;;;-144.99;67.77;52321.72;5111676;28;20662;-68
2021/05/21 07:55:38;;;;;;;3.70;1.40;;;;;;;-144.99;68.29;52346.19;5108232;28;20259;-68
2021/05/21 07:58:06;;;;;;;3.97;1.47;;;;;;;-144.99;69.05;52358.41;5107420;28;20224;-68
2021/05/21 08:00:35;;;;;;;2.93;1.37;;;;;;;-144.99;73.25;52327.84;5113208;28;20199;-68
2021/05/21 08:03:01;;;;;;;4.80;2.20;;;;;;;-144.99;75.81;52342.09;5109627;28;20492;-70
2021/05/21 08:05:28;;;;;;;3.97;1.33;;;;;;;-144.99;77.13;52346.19;5105164;28;20249;-69
2021/05/21 08:07:56;;;;;;;5.70;2.77;;;;;;;-144.99;79.16;52350.25;5107534;28;20220;-69
2021/05/21 08:10:24;;;;;;;7.53;2.17;;;;;;;-144.99;81.08;52370.63;5111097;28;20353;-69
2021/05/21 08:12:50;;;;;;;7.23;5.17;;;;;;;-144.99;82.44;52364.53;5112906;28;20739;-70
2021/05/21 08:15:22;;;;;;;5.43;1.53;;;;;;;-144.99;83.25;52382.88;5108057;28;20238;-68
2021/05/21 08:17:48;;;;;;;5.40;2.47;;;;;;;-144.99;83.93;52362.50;5104391;28;20259;-71
2021/05/21 08:20:20;;;;;;;3.57;1.90;;;;;;;-144.99;83.95;52362.50;5105232;28;20207;-68
2021/05/21 08:22:49;;;;;;;2.30;1.50;;;;;;;-144.99;84.03;52333.94;5112337;28;20200;-68
2021/05/21 08:25:19;;;;;;;5.87;1.93;;;;;;;-144.99;84.52;52325.81;5110813;28;20214;-68
2021/05/21 08:27:46;;;;;;;8.37;2.00;;;;;;;-144.99;84.36;52321.72;5110908;28;20280;-70
2021/05/21 08:30:16;;;;;;;5.90;2.47;;;;;;;-144.99;83.98;52348.22;5100690;28;20215;-69
2021/05/21 08:32:42;;;;;;;4.30;1.87;;;;;;;-144.99;83.81;52366.56;5110308;28;20211;-69
2021/05/21 08:35:12;;;;;;;2.97;1.43;;;;;;;-144.99;84.06;52313.56;5107343;28;20223;-71
2021/05/21 08:37:38;;;;;;;6.10;2.57;;;;;;;-144.99;83.00;52280.97;5112068;28;20238;-69
2021/05/21 08:40:08;;;;;;;3.60;2.03;;;;;;;-144.99;81.78;52360.44;5108996;28;20221;-69
2021/05/21 08:42:38;;;;;;;5.07;2.33;;;;;;;-144.99;81.26;52321.72;5104980;28;20211;-70
2021/05/21 08:45:06;;;;;;;3.97;1.43;;;;;;;-144.99;81.75;52311.53;5107518;28;20199;-71
2021/05/21 08:47:36;;;;;;;5.07;1.50;;;;;;;-144.99;81.71;52317.66;5111101;28;20618;-69
2021/05/21 08:50:07;;;;;;;3.40;1.63;;;;;;;-144.99;81.08;52317.66;5110796;28;20235;-70
2021/05/21 08:52:34;;;;;;;4.00;1.90;;;;;;;-144.99;82.00;52333.94;5106587;28;20204;-70
2021/05/21 08:55:00;;;;;;;5.23;1.63;;;;;;;-144.99;81.93;52325.81;5112885;28;20234;-71
2021/05/21 08:57:32;;;;;;;5.53;2.00;;;;;;;-144.99;82.00;52342.09;5104818;28;20230;-69
2021/05/21 08:59:59;;;;;;;5.50;1.90;;;;;;;-144.99;81.58;52301.34;5112701;28;20966;-70
2021/05/21 09:02:28;;;;;;;3.70;1.37;;;;;;;-144.99;80.96;52336.00;5107996;28;20657;-69
2021/05/21 09:04:57;;;;;;;1.83;1.00;;;;;;;-144.99;81.38;52362.50;5105038;28;20276;-70
2021/05/21 09:07:24;;;;;;;1.77;0.80;;;;;;;-144.99;79.95;52329.88;5110934;28;20224;-70
2021/05/21 09:09:51;;;;;;;4.20;2.30;;;;;;;-144.99;81.15;52333.94;5114967;28;20243;-70
2021/05/21 09:12:19;;;;;;;5.70;2.33;;;;;;;-144.99;80.80;52291.16;5122357;28;20207;-72
2021/05/21 09:15:17;;;;;;;6.03;1.67;;;;;;;-144.99;78.88;52305.41;5116085;28;20307;-69
2021/05/21 09:17:55;;;;;;;2.67;1.63;;;;;;;-144.99;78.69;52317.66;5106320;28;20274;-70
2021/05/21 09:20:24;;;;;;;3.63;1.40;;;;;;;-144.99;77.21;52317.66;5103203;28;20212;-70
2021/05/21 09:23:05;;;;;;;4.63;1.13;;;;;;;-144.99;75.46;52289.13;5105088;28;20207;-70
2021/05/21 09:25:45;;;;;;;5.77;1.50;;;;;;;-144.99;75.46;52321.72;5102765;28;20287;-69
2021/05/21 09:28:32;;;;;;;6.67;1.93;;;;;;;-144.99;71.79;52285.03;5107604;28;20241;-72
2021/05/21 09:31:12;;;;;;;10.00;2.50;;;;;;;-144.99;69.27;52264.66;5106406;28;20218;-70
2021/05/21 09:33:44;;;;;;;11.33;2.83;;;;;;;-144.99;67.24;52289.13;5110977;28;20204;-69
2021/05/21 09:36:14;;;;;;;9.70;2.70;;;;;;;-144.99;66.11;52293.19;5111639;28;20216;-71
2021/05/21 09:38:51;;;;;;;11.53;3.23;;;;;;;-144.99;65.70;52270.78;5111567;28;20200;-73
2021/05/21 09:41:17;;;;;;;8.17;2.30;;;;;;;-144.99;64.83;52252.44;5102431;28;20682;-70
2021/05/21 09:43:49;;;;;;;14.87;3.13;;;;;;;-144.99;63.08;52285.03;5110904;28;20785;-70
2021/05/21 09:46:15;;;;;;;18.10;5.50;;;;;;;-144.99;63.62;52289.13;5111573;28;20205;-70
2021/05/21 09:48:45;;;;;;;11.47;4.47;;;;;;;-144.99;63.39;52276.88;5111541;28;20585;-70
2021/05/21 09:51:13;;;;;;;7.07;2.67;;;;;;;-144.99;62.22;52266.69;5103613;28;20218;-69
2021/05/21 09:53:39;;;;;;;7.67;2.67;;;;;;;-144.99;60.76;52268.72;5109559;28;20213;-70
2021/05/21 09:56:06;;;;;;;9.80;3.77;;;;;;;-144.99;61.90;52272.81;5110715;28;20229;-70
2021/05/21 09:58:34;;;;;;;9.47;3.03;;;;;;;-144.99;61.24;52260.56;5109236;28;20220;-70
2021/05/21 10:01:19;;;;;;;11.90;3.57;;;;;;;-144.99;60.88;52264.66;5100349;28;20198;-68
2021/05/21 10:03:47;;;;;;;7.10;2.40;;;;;;;-144.99;59.38;52244.28;5107492;28;20203;-70
2021/05/21 10:06:14;;;;;;;10.27;3.50;;;;;;;-144.99;56.56;52238.16;5104854;28;20230;-69
2021/05/21 10:08:42;;;;;;;10.43;2.77;;;;;;;-144.99;56.54;52307.47;5102876;28;20657;-69
2021/05/21 10:11:09;;;;;;;9.27;3.07;;;;;;;-144.99;55.04;52225.94;5111691;28;20294;-70
2021/05/21 10:13:42;;;;;;;7.37;2.20;;;;;;;-144.99;54.18;52260.56;5104490;28;20215;-71
2021/05/21 10:16:12;;;;;;;11.40;3.30;;;;;;;-144.99;54.36;52276.88;5110699;28;20313;-72
2021/05/21 10:18:42;;;;;;;6.63;2.70;;;;;;;-144.99;53.93;52211.66;5101192;27;20204;-68
2021/05/21 10:21:10;;;;;;;10.27;2.17;;;;;;;-144.99;53.55;52262.63;5105726;27;20207;-68
2021/05/21 10:23:40;;;;;;;8.47;5.20;;;;;;;-144.99;53.24;52213.69;5110508;28;20669;-69
2021/05/21 10:26:12;;;;;;;10.03;3.40;;;;;;;-144.99;52.26;52276.88;5103161;28;20658;-71
2021/05/21 10:28:40;;;;;;;9.30;3.17;;;;;;;-144.99;52.15;52187.19;5104083;28;20262;-69
2021/05/21 10:31:09;;;;;;;7.97;3.30;;;;;;;-144.99;51.63;52215.75;5109887;28;20207;-71
2021/05/21 10:33:36;;;;;;;10.90;2.77;;;;;;;-144.99;53.25;52219.81;5094221;28;20204;-70
2021/05/21 10:36:29;;;;;;;17.73;5.70;;;;;;;-144.99;52.28;52227.97;5110224;28;20292;-70
2021/05/21 10:39:04;;;;;;;11.83;2.40;;;;;;;-144.99;51.49;52191.28;5094913;28;20313;-70
2021/05/21 10:41:34;;;;;;;10.30;2.93;;;;;;;-144.99;50.91;52187.19;5110204;28;20762;-68
2021/05/21 10:44:00;;;;;;;7.33;2.30;;;;;;;-144.99;50.05;52174.97;5109223;28;20199;-69
2021/05/21 10:46:27;;;;;;;12.07;2.80;;;;;;;-144.99;50.83;52199.44;5109955;28;20704;-71
2021/05/21 10:48:56;;;;;;;7.63;1.90;;;;;;;-144.99;51.14;52236.13;5110601;28;20286;-70
2021/05/21 10:51:23;;;;;;;11.43;2.67;;;;;;;-144.99;50.83;52187.19;5102349;28;20641;-68
2021/05/21 10:54:23;;;;;;;8.03;3.20;;;;;;;-144.99;51.17;52227.97;5103498;28;20203;-69
2021/05/21 10:56:50;;;;;;;7.70;2.27;;;;;;;-144.99;50.40;52164.78;5099460;28;20224;-69
2021/05/21 10:59:19;;;;;;;10.43;2.40;;;;;;;-144.99;50.60;52240.19;5119651;28;20211;-71
2021/05/21 11:01:48;;;;;;;6.53;2.70;;;;;;;-144.99;51.26;52289.13;5117371;28;20203;-70
2021/05/21 11:04:19;;;;;;;10.20;2.00;;;;;;;-144.99;50.65;52219.81;5106930;28;20220;-69
2021/05/21 11:06:55;;;;;;;11.60;3.03;;;;;;;-144.99;49.89;52207.59;5113572;28;20220;-69
2021/05/21 11:09:28;;;;;;;13.10;3.00;;;;;;;-144.99;50.34;52146.44;5107254;28;20569;-69
2021/05/21 11:12:01;;;;;;;9.43;2.37;;;;;;;-144.99;49.84;52193.31;5107979;28;20207;-70
2021/05/21 11:14:50;;;;;;;7.20;2.73;;;;;;;-144.99;49.26;52181.09;5108846;28;20260;-69
2021/05/21 11:17:25;;;;;;;9.17;2.53;;;;;;;-144.99;48.72;52134.22;5103390;28;20228;-68
2021/05/21 11:19:54;;;;;;;5.93;2.30;;;;;;;-144.99;48.19;52156.63;5105153;28;20199;-69
2021/05/21 11:22:23;;;;;;;9.10;2.03;;;;;;;-144.99;47.70;52191.28;5108997;28;20208;-69
2021/05/21 11:24:53;;;;;;;4.70;1.50;;;;;;;-144.99;47.44;52240.19;5103733;28;20200;-69
2021/05/21 11:27:23;;;;;;;13.10;3.20;;;;;;;-144.99;48.39;52211.66;5105742;28;20224;-71